sensor_id;sensor_type;location;lat;lon;timestamp;temperature;humidity
7598;DHT22;3840;59.32098800;18.06423600;2022-09-28T00:01:56;13.30;99.90
7598;DHT22;3840;59.32098800;18.06423600;2022-09-28T00:04:22;13.30;99.90
7598;DHT22;3840;59.32098800;18.06423600;2022-09-28T00:06:49;13.30;99.90
7598;DHT22;3840;59.32098800;18.06423600;2022-09-28T00:09:16;13.30;99.90
7598;DHT22;3840;59.32098800;18.06423600;2022-09-28T00:11:42;13.30;99.90
7598;DHT22;3840;59.32098800;18.06423600;2022-09-28T00:14:09;13.30;99.90
7598;DHT22;3840;59.32098800;18.06423600;2022-09-28T00:16:39;13.20;99.90
7598;DHT22;3840;59.32098800;18.06423600;2022-09-28T00:19:05;13.30;99.90
7598;DHT22;3840;59.32098800;18.06423600;2022-09-28T00:21:34;13.30;99.90
7598;DHT22;3840;59.32098800;18.06423600;2022-09-28T00:24:01;13.30;99.90
7598;DHT22;3840;59.32098800;18.06423600;2022-09-28T00:26:53;13.20;99.90
7598;DHT22;3840;59.32098800;18.06423600;2022-09-28T00:29:23;13.20;99.90
7598;DHT22;3840;59.32098800;18.06423600;2022-09-28T00:31:57;13.20;99.90
7598;DHT22;3840;59.32098800;18.06423600;2022-09-28T00:34:28;13.20;99.90
7598;DHT22;3840;59.32098800;18.06423600;2022-09-28T00:36:59;13.10;99.90
7598;DHT22;3840;59.32098800;18.06423600;2022-09-28T00:39:25;13.20;99.90
7598;DHT22;3840;59.32098800;18.06423600;2022-09-28T00:41:52;13.20;99.90
7598;DHT22;3840;59.32098800;18.06423600;2022-09-28T00:52:42;13.20;99.90
7598;DHT22;3840;59.32098800;18.06423600;2022-09-28T00:55:13;13.20;99.90
7598;DHT22;3840;59.32098800;18.06423600;2022-09-28T00:57:43;13.20;99.90
7598;DHT22;3840;59.32098800;18.06423600;2022-09-28T01:00:10;13.20;99.90
7598;DHT22;3840;59.32098800;18.06423600;2022-09-28T01:02:36;13.20;99.90
7598;DHT22;3840;59.32098800;18.06423600;2022-09-28T01:05:02;13.20;99.90
7598;DHT22;3840;59.32098800;18.06423600;2022-09-28T01:07:32;13.20;99.90
7598;DHT22;3840;59.32098800;18.06423600;2022-09-28T01:09:59;13.30;99.90
7598;DHT22;3840;59.32098800;18.06423600;2022-09-28T01:12:25;13.20;99.90
7598;DHT22;3840;59.32098800;18.06423600;2022-09-28T01:14:51;13.20;99.90
7598;DHT22;3840;59.32098800;18.06423600;2022-09-28T01:17:25;13.20;99.90
7598;DHT22;3840;59.32098800;18.06423600;2022-09-28T01:28:27;13.20;99.90
7598;DHT22;3840;59.32098800;18.06423600;2022-09-28T01:31:08;13.30;99.90
7598;DHT22;3840;59.32098800;18.06423600;2022-09-28T01:33:44;13.30;99.90
7598;DHT22;3840;59.32098800;18.06423600;2022-09-28T01:36:18;13.30;99.90
7598;DHT22;3840;59.32098800;18.06423600;2022-09-28T01:39:00;13.20;99.90
7598;DHT22;3840;59.32098800;18.06423600;2022-09-28T01:41:29;13.30;99.90
7598;DHT22;3840;59.32098800;18.06423600;2022-09-28T01:43:59;13.20;99.90
7598;DHT22;3840;59.32098800;18.06423600;2022-09-28T01:46:47;13.20;99.90
7598;DHT22;3840;59.32098800;18.06423600;2022-09-28T01:49:24;13.20;99.90
7598;DHT22;3840;59.32098800;18.06423600;2022-09-28T01:52:12;13.20;99.90
7598;DHT22;3840;59.32098800;18.06423600;2022-09-28T01:55:18;13.20;99.90
7598;DHT22;3840;59.32098800;18.06423600;2022-09-28T01:58:23;13.10;99.90
7598;DHT22;3840;59.32098800;18.06423600;2022-09-28T02:00:45;13.20;99.90
7598;DHT22;3840;59.32098800;18.06423600;2022-09-28T02:03:17;13.10;99.90
7598;DHT22;3840;59.32098800;18.06423600;2022-09-28T02:05:59;13.10;99.90
7598;DHT22;3840;59.32098800;18.06423600;2022-09-28T02:08:43;13.10;99.90
7598;DHT22;3840;59.32098800;18.06423600;2022-09-28T02:11:16;13.10;99.90
7598;DHT22;3840;59.32098800;18.06423600;2022-09-28T02:13:55;13.10;99.90
7598;DHT22;3840;59.32098800;18.06423600;2022-09-28T02:16:38;13.10;99.90
7598;DHT22;3840;59.32098800;18.06423600;2022-09-28T02:19:08;13.10;99.90
7598;DHT22;3840;59.32098800;18.06423600;2022-09-28T02:27:07;13.10;99.90
7598;DHT22;3840;59.32098800;18.06423600;2022-09-28T02:29:33;13.00;99.90
7598;DHT22;3840;59.32098800;18.06423600;2022-09-28T02:31:59;13.00;99.90
7598;DHT22;3840;59.32098800;18.06423600;2022-09-28T02:34:25;13.00;99.90
7598;DHT22;3840;59.32098800;18.06423600;2022-09-28T02:36:50;13.00;99.90
7598;DHT22;3840;59.32098800;18.06423600;2022-09-28T02:39:17;13.00;99.90
7598;DHT22;3840;59.32098800;18.06423600;2022-09-28T02:45:10;12.90;99.90
7598;DHT22;3840;59.32098800;18.06423600;2022-09-28T02:50:11;12.90;99.90
7598;DHT22;3840;59.32098800;18.06423600;2022-09-28T02:55:43;12.90;99.90
7598;DHT22;3840;59.32098800;18.06423600;2022-09-28T03:01:01;12.90;99.90
7598;DHT22;3840;59.32098800;18.06423600;2022-09-28T03:03:45;12.90;99.90
7598;DHT22;3840;59.32098800;18.06423600;2022-09-28T03:06:22;12.90;99.90
7598;DHT22;3840;59.32098800;18.06423600;2022-09-28T03:09:01;12.90;99.90
7598;DHT22;3840;59.32098800;18.06423600;2022-09-28T03:11:36;12.90;99.90
7598;DHT22;3840;59.32098800;18.06423600;2022-09-28T03:14:04;12.80;99.90
7598;DHT22;3840;59.32098800;18.06423600;2022-09-28T03:16:30;12.80;99.90
7598;DHT22;3840;59.32098800;18.06423600;2022-09-28T03:18:57;12.80;99.90
7598;DHT22;3840;59.32098800;18.06423600;2022-09-28T03:21:23;12.70;99.90
7598;DHT22;3840;59.32098800;18.06423600;2022-09-28T03:23:48;12.70;99.90
7598;DHT22;3840;59.32098800;18.06423600;2022-09-28T03:26:15;12.70;99.90
7598;DHT22;3840;59.32098800;18.06423600;2022-09-28T03:28:41;12.70;99.90
7598;DHT22;3840;59.32098800;18.06423600;2022-09-28T03:31:07;12.70;99.90
7598;DHT22;3840;59.32098800;18.06423600;2022-09-28T03:33:33;12.60;99.90
7598;DHT22;3840;59.32098800;18.06423600;2022-09-28T03:35:58;12.60;99.90
7598;DHT22;3840;59.32098800;18.06423600;2022-09-28T03:38:25;12.50;99.90
7598;DHT22;3840;59.32098800;18.06423600;2022-09-28T03:41:09;12.50;99.90
7598;DHT22;3840;59.32098800;18.06423600;2022-09-28T03:43:34;12.50;99.90
7598;DHT22;3840;59.32098800;18.06423600;2022-09-28T03:46:01;12.50;99.90
7598;DHT22;3840;59.32098800;18.06423600;2022-09-28T03:48:30;12.40;99.90
7598;DHT22;3840;59.32098800;18.06423600;2022-09-28T03:50:58;12.40;99.90
7598;DHT22;3840;59.32098800;18.06423600;2022-09-28T03:53:24;12.40;99.90
7598;DHT22;3840;59.32098800;18.06423600;2022-09-28T03:55:50;12.40;99.90
7598;DHT22;3840;59.32098800;18.06423600;2022-09-28T03:58:19;12.50;99.90
7598;DHT22;3840;59.32098800;18.06423600;2022-09-28T04:00:45;12.50;99.90
7598;DHT22;3840;59.32098800;18.06423600;2022-09-28T04:03:11;12.40;99.90
7598;DHT22;3840;59.32098800;18.06423600;2022-09-28T04:05:37;12.40;99.90
7598;DHT22;3840;59.32098800;18.06423600;2022-09-28T04:08:04;12.40;99.90
7598;DHT22;3840;59.32098800;18.06423600;2022-09-28T04:10:30;12.40;99.90
7598;DHT22;3840;59.32098800;18.06423600;2022-09-28T04:12:56;12.30;99.90
7598;DHT22;3840;59.32098800;18.06423600;2022-09-28T04:15:23;12.40;99.90
7598;DHT22;3840;59.32098800;18.06423600;2022-09-28T04:17:50;12.40;99.90
7598;DHT22;3840;59.32098800;18.06423600;2022-09-28T04:20:16;12.50;99.90
7598;DHT22;3840;59.32098800;18.06423600;2022-09-28T04:22:42;12.50;99.90
7598;DHT22;3840;59.32098800;18.06423600;2022-09-28T04:25:08;12.50;99.90
7598;DHT22;3840;59.32098800;18.06423600;2022-09-28T04:27:34;12.60;99.90
7598;DHT22;3840;59.32098800;18.06423600;2022-09-28T04:30:18;12.60;99.90
7598;DHT22;3840;59.32098800;18.06423600;2022-09-28T04:32:47;12.60;99.90
7598;DHT22;3840;59.32098800;18.06423600;2022-09-28T04:35:13;12.70;99.90
7598;DHT22;3840;59.32098800;18.06423600;2022-09-28T04:37:39;12.70;99.90
7598;DHT22;3840;59.32098800;18.06423600;2022-09-28T04:40:05;12.70;99.90
7598;DHT22;3840;59.32098800;18.06423600;2022-09-28T04:42:31;12.70;99.90
7598;DHT22;3840;59.32098800;18.06423600;2022-09-28T04:44:57;12.70;99.90
7598;DHT22;3840;59.32098800;18.06423600;2022-09-28T04:47:24;12.70;99.90
7598;DHT22;3840;59.32098800;18.06423600;2022-09-28T04:49:50;12.70;99.90
7598;DHT22;3840;59.32098800;18.06423600;2022-09-28T04:52:16;12.70;99.90
7598;DHT22;3840;59.32098800;18.06423600;2022-09-28T04:54:41;12.70;99.90
7598;DHT22;3840;59.32098800;18.06423600;2022-09-28T04:57:07;12.70;99.90
7598;DHT22;3840;59.32098800;18.06423600;2022-09-28T04:59:33;12.70;99.90
7598;DHT22;3840;59.32098800;18.06423600;2022-09-28T05:01:58;12.70;99.90
7598;DHT22;3840;59.32098800;18.06423600;2022-09-28T05:04:24;12.70;99.90
7598;DHT22;3840;59.32098800;18.06423600;2022-09-28T05:06:50;12.70;99.90
7598;DHT22;3840;59.32098800;18.06423600;2022-09-28T05:09:15;12.70;99.90
7598;DHT22;3840;59.32098800;18.06423600;2022-09-28T05:11:41;12.70;99.90
7598;DHT22;3840;59.32098800;18.06423600;2022-09-28T05:14:07;12.80;99.90
7598;DHT22;3840;59.32098800;18.06423600;2022-09-28T05:16:32;12.70;99.90
7598;DHT22;3840;59.32098800;18.06423600;2022-09-28T05:18:58;12.70;99.90
7598;DHT22;3840;59.32098800;18.06423600;2022-09-28T05:21:24;12.80;99.90
7598;DHT22;3840;59.32098800;18.06423600;2022-09-28T05:23:51;12.80;99.90
7598;DHT22;3840;59.32098800;18.06423600;2022-09-28T05:26:20;12.80;99.90
7598;DHT22;3840;59.32098800;18.06423600;2022-09-28T05:28:46;12.80;99.90
7598;DHT22;3840;59.32098800;18.06423600;2022-09-28T05:31:11;12.70;99.90
7598;DHT22;3840;59.32098800;18.06423600;2022-09-28T05:33:37;12.80;99.90
7598;DHT22;3840;59.32098800;18.06423600;2022-09-28T05:36:03;12.80;99.90
7598;DHT22;3840;59.32098800;18.06423600;2022-09-28T05:38:29;12.80;99.90
7598;DHT22;3840;59.32098800;18.06423600;2022-09-28T05:40:55;12.80;99.90
7598;DHT22;3840;59.32098800;18.06423600;2022-09-28T05:43:22;12.80;99.90
7598;DHT22;3840;59.32098800;18.06423600;2022-09-28T05:45:48;12.80;99.90
7598;DHT22;3840;59.32098800;18.06423600;2022-09-28T05:48:13;12.80;99.90
7598;DHT22;3840;59.32098800;18.06423600;2022-09-28T05:50:39;12.80;99.90
7598;DHT22;3840;59.32098800;18.06423600;2022-09-28T05:53:07;12.80;99.90
7598;DHT22;3840;59.32098800;18.06423600;2022-09-28T05:55:34;12.80;99.90
7598;DHT22;3840;59.32098800;18.06423600;2022-09-28T05:58:02;12.80;99.90
7598;DHT22;3840;59.32098800;18.06423600;2022-09-28T06:00:30;12.80;99.90
7598;DHT22;3840;59.32098800;18.06423600;2022-09-28T06:03:04;12.80;99.90
7598;DHT22;3840;59.32098800;18.06423600;2022-09-28T06:05:32;12.80;99.90
7598;DHT22;3840;59.32098800;18.06423600;2022-09-28T06:07:59;12.80;99.90
7598;DHT22;3840;59.32098800;18.06423600;2022-09-28T06:10:26;12.80;99.90
7598;DHT22;3840;59.32098800;18.06423600;2022-09-28T06:12:54;12.80;99.90
7598;DHT22;3840;59.32098800;18.06423600;2022-09-28T06:15:21;12.80;99.90
7598;DHT22;3840;59.32098800;18.06423600;2022-09-28T06:17:46;12.80;99.90
7598;DHT22;3840;59.32098800;18.06423600;2022-09-28T06:20:12;12.80;99.90
7598;DHT22;3840;59.32098800;18.06423600;2022-09-28T06:22:38;12.90;99.90
7598;DHT22;3840;59.32098800;18.06423600;2022-09-28T06:25:05;12.90;99.90
7598;DHT22;3840;59.32098800;18.06423600;2022-09-28T06:27:32;12.80;99.90
7598;DHT22;3840;59.32098800;18.06423600;2022-09-28T06:29:59;12.90;99.90
7598;DHT22;3840;59.32098800;18.06423600;2022-09-28T06:32:26;12.90;99.90
7598;DHT22;3840;59.32098800;18.06423600;2022-09-28T06:34:54;13.00;99.90
7598;DHT22;3840;59.32098800;18.06423600;2022-09-28T06:37:19;13.00;99.90
7598;DHT22;3840;59.32098800;18.06423600;2022-09-28T06:39:45;13.00;99.90
7598;DHT22;3840;59.32098800;18.06423600;2022-09-28T06:42:11;13.00;99.90
7598;DHT22;3840;59.32098800;18.06423600;2022-09-28T06:44:36;13.00;99.90
7598;DHT22;3840;59.32098800;18.06423600;2022-09-28T06:47:02;13.00;99.90
7598;DHT22;3840;59.32098800;18.06423600;2022-09-28T06:49:28;13.10;99.90
7598;DHT22;3840;59.32098800;18.06423600;2022-09-28T06:51:54;13.10;99.90
7598;DHT22;3840;59.32098800;18.06423600;2022-09-28T06:54:20;13.10;99.90
7598;DHT22;3840;59.32098800;18.06423600;2022-09-28T06:56:51;13.20;99.90
7598;DHT22;3840;59.32098800;18.06423600;2022-09-28T06:59:17;13.10;99.90
7598;DHT22;3840;59.32098800;18.06423600;2022-09-28T07:01:42;13.10;99.90
7598;DHT22;3840;59.32098800;18.06423600;2022-09-28T07:04:08;13.20;99.90
7598;DHT22;3840;59.32098800;18.06423600;2022-09-28T07:06:34;13.20;99.90
7598;DHT22;3840;59.32098800;18.06423600;2022-09-28T07:08:59;13.30;99.90
7598;DHT22;3840;59.32098800;18.06423600;2022-09-28T07:11:27;13.40;99.90
7598;DHT22;3840;59.32098800;18.06423600;2022-09-28T07:13:54;14.10;99.90
7598;DHT22;3840;59.32098800;18.06423600;2022-09-28T07:16:19;13.50;99.90
7598;DHT22;3840;59.32098800;18.06423600;2022-09-28T07:18:45;13.50;99.90
7598;DHT22;3840;59.32098800;18.06423600;2022-09-28T07:21:11;13.60;99.90
7598;DHT22;3840;59.32098800;18.06423600;2022-09-28T07:23:36;13.50;99.90
7598;DHT22;3840;59.32098800;18.06423600;2022-09-28T07:26:03;13.60;99.90
7598;DHT22;3840;59.32098800;18.06423600;2022-09-28T07:28:29;13.50;99.90
7598;DHT22;3840;59.32098800;18.06423600;2022-09-28T07:30:56;13.50;99.90
7598;DHT22;3840;59.32098800;18.06423600;2022-09-28T07:33:22;13.50;99.90
7598;DHT22;3840;59.32098800;18.06423600;2022-09-28T07:35:54;13.60;99.90
7598;DHT22;3840;59.32098800;18.06423600;2022-09-28T07:38:20;13.60;99.90
7598;DHT22;3840;59.32098800;18.06423600;2022-09-28T07:40:46;13.60;99.90
7598;DHT22;3840;59.32098800;18.06423600;2022-09-28T07:43:31;13.70;99.90
7598;DHT22;3840;59.32098800;18.06423600;2022-09-28T07:45:57;13.70;99.90
7598;DHT22;3840;59.32098800;18.06423600;2022-09-28T07:48:23;13.80;99.90
7598;DHT22;3840;59.32098800;18.06423600;2022-09-28T07:50:53;13.90;99.90
7598;DHT22;3840;59.32098800;18.06423600;2022-09-28T07:53:23;13.80;99.90
7598;DHT22;3840;59.32098800;18.06423600;2022-09-28T07:55:57;13.80;99.90
7598;DHT22;3840;59.32098800;18.06423600;2022-09-28T07:58:35;13.80;99.90
7598;DHT22;3840;59.32098800;18.06423600;2022-09-28T08:01:09;13.90;99.90
7598;DHT22;3840;59.32098800;18.06423600;2022-09-28T08:03:36;13.80;99.90
7598;DHT22;3840;59.32098800;18.06423600;2022-09-28T08:06:04;13.80;99.90
7598;DHT22;3840;59.32098800;18.06423600;2022-09-28T08:08:34;13.80;99.90
7598;DHT22;3840;59.32098800;18.06423600;2022-09-28T08:11:01;13.90;99.90
7598;DHT22;3840;59.32098800;18.06423600;2022-09-28T08:13:27;13.90;99.90
7598;DHT22;3840;59.32098800;18.06423600;2022-09-28T08:15:54;14.00;99.90
7598;DHT22;3840;59.32098800;18.06423600;2022-09-28T08:18:20;14.00;99.90
7598;DHT22;3840;59.32098800;18.06423600;2022-09-28T08:20:51;14.00;99.90
7598;DHT22;3840;59.32098800;18.06423600;2022-09-28T08:23:35;14.00;99.90
7598;DHT22;3840;59.32098800;18.06423600;2022-09-28T08:26:03;14.10;99.90
7598;DHT22;3840;59.32098800;18.06423600;2022-09-28T08:28:28;14.10;99.90
7598;DHT22;3840;59.32098800;18.06423600;2022-09-28T08:30:57;14.20;99.90
7598;DHT22;3840;59.32098800;18.06423600;2022-09-28T08:33:23;14.30;99.90
7598;DHT22;3840;59.32098800;18.06423600;2022-09-28T08:35:57;14.30;99.90
7598;DHT22;3840;59.32098800;18.06423600;2022-09-28T08:38:27;14.40;99.90
7598;DHT22;3840;59.32098800;18.06423600;2022-09-28T08:44:11;14.40;99.90
7598;DHT22;3840;59.32098800;18.06423600;2022-09-28T08:46:44;14.30;99.90
7598;DHT22;3840;59.32098800;18.06423600;2022-09-28T08:49:28;14.30;99.90
7598;DHT22;3840;59.32098800;18.06423600;2022-09-28T08:55:10;14.20;99.90
7598;DHT22;3840;59.32098800;18.06423600;2022-09-28T08:57:50;14.30;99.90
7598;DHT22;3840;59.32098800;18.06423600;2022-09-28T09:00:31;14.30;99.90
7598;DHT22;3840;59.32098800;18.06423600;2022-09-28T09:02:58;14.30;99.90
7598;DHT22;3840;59.32098800;18.06423600;2022-09-28T09:08:33;14.40;99.90
7598;DHT22;3840;59.32098800;18.06423600;2022-09-28T09:11:07;14.40;99.90
7598;DHT22;3840;59.32098800;18.06423600;2022-09-28T09:13:45;14.50;99.90
7598;DHT22;3840;59.32098800;18.06423600;2022-09-28T09:19:04;14.40;99.90
7598;DHT22;3840;59.32098800;18.06423600;2022-09-28T09:21:41;14.30;99.90
7598;DHT22;3840;59.32098800;18.06423600;2022-09-28T09:24:50;14.40;99.90
7598;DHT22;3840;59.32098800;18.06423600;2022-09-28T09:30:09;14.40;99.90
7598;DHT22;3840;59.32098800;18.06423600;2022-09-28T09:38:50;14.20;99.90
7598;DHT22;3840;59.32098800;18.06423600;2022-09-28T09:46:56;14.20;99.90
7598;DHT22;3840;59.32098800;18.06423600;2022-09-28T09:49:32;14.20;99.90
7598;DHT22;3840;59.32098800;18.06423600;2022-09-28T09:52:25;14.00;99.90
7598;DHT22;3840;59.32098800;18.06423600;2022-09-28T09:58:15;14.00;99.90
7598;DHT22;3840;59.32098800;18.06423600;2022-09-28T10:00:44;14.00;99.90
7598;DHT22;3840;59.32098800;18.06423600;2022-09-28T10:03:22;14.10;99.90
7598;DHT22;3840;59.32098800;18.06423600;2022-09-28T10:05:58;14.00;99.90
7598;DHT22;3840;59.32098800;18.06423600;2022-09-28T10:08:26;14.00;99.90
7598;DHT22;3840;59.32098800;18.06423600;2022-09-28T10:11:01;14.00;99.90
7598;DHT22;3840;59.32098800;18.06423600;2022-09-28T10:13:32;14.10;99.90
7598;DHT22;3840;59.32098800;18.06423600;2022-09-28T10:16:00;14.20;99.90
7598;DHT22;3840;59.32098800;18.06423600;2022-09-28T10:18:26;14.10;99.90
7598;DHT22;3840;59.32098800;18.06423600;2022-09-28T10:20:52;14.10;99.90
7598;DHT22;3840;59.32098800;18.06423600;2022-09-28T10:23:29;14.10;99.90
7598;DHT22;3840;59.32098800;18.06423600;2022-09-28T10:26:06;14.10;99.90
7598;DHT22;3840;59.32098800;18.06423600;2022-09-28T10:28:40;14.10;99.90
7598;DHT22;3840;59.32098800;18.06423600;2022-09-28T10:31:37;14.30;99.90
7598;DHT22;3840;59.32098800;18.06423600;2022-09-28T10:34:04;14.10;99.90
7598;DHT22;3840;59.32098800;18.06423600;2022-09-28T10:36:32;14.30;99.90
7598;DHT22;3840;59.32098800;18.06423600;2022-09-28T10:39:27;15.60;99.90
7598;DHT22;3840;59.32098800;18.06423600;2022-09-28T10:41:54;14.40;99.90
7598;DHT22;3840;59.32098800;18.06423600;2022-09-28T10:44:21;14.30;99.90
7598;DHT22;3840;59.32098800;18.06423600;2022-09-28T10:46:58;14.70;99.90
7598;DHT22;3840;59.32098800;18.06423600;2022-09-28T10:49:25;14.10;99.90
7598;DHT22;3840;59.32098800;18.06423600;2022-09-28T10:51:54;14.00;99.90
7598;DHT22;3840;59.32098800;18.06423600;2022-09-28T10:54:22;14.00;99.90
7598;DHT22;3840;59.32098800;18.06423600;2022-09-28T10:56:50;14.00;99.90
7598;DHT22;3840;59.32098800;18.06423600;2022-09-28T11:02:00;14.10;99.90
7598;DHT22;3840;59.32098800;18.06423600;2022-09-28T11:04:29;14.00;99.90
7598;DHT22;3840;59.32098800;18.06423600;2022-09-28T11:06:57;14.00;99.90
7598;DHT22;3840;59.32098800;18.06423600;2022-09-28T11:09:30;15.30;99.90
7598;DHT22;3840;59.32098800;18.06423600;2022-09-28T11:11:57;14.10;99.90
7598;DHT22;3840;59.32098800;18.06423600;2022-09-28T11:14:30;14.10;99.90
7598;DHT22;3840;59.32098800;18.06423600;2022-09-28T11:17:31;14.10;99.90
7598;DHT22;3840;59.32098800;18.06423600;2022-09-28T11:22:47;14.00;99.90
7598;DHT22;3840;59.32098800;18.06423600;2022-09-28T11:28:02;13.80;99.90
7598;DHT22;3840;59.32098800;18.06423600;2022-09-28T11:30:43;13.80;99.90
7598;DHT22;3840;59.32098800;18.06423600;2022-09-28T11:33:31;13.70;99.90
7598;DHT22;3840;59.32098800;18.06423600;2022-09-28T11:44:16;14.00;99.90
7598;DHT22;3840;59.32098800;18.06423600;2022-09-28T11:49:56;14.10;99.90
7598;DHT22;3840;59.32098800;18.06423600;2022-09-28T11:52:36;14.10;99.90
7598;DHT22;3840;59.32098800;18.06423600;2022-09-28T11:55:29;14.00;99.90
7598;DHT22;3840;59.32098800;18.06423600;2022-09-28T11:58:10;14.00;99.90
7598;DHT22;3840;59.32098800;18.06423600;2022-09-28T12:00:44;14.10;99.90
7598;DHT22;3840;59.32098800;18.06423600;2022-09-28T12:03:15;14.00;99.90
7598;DHT22;3840;59.32098800;18.06423600;2022-09-28T12:05:54;13.90;99.90
7598;DHT22;3840;59.32098800;18.06423600;2022-09-28T12:08:31;13.90;99.90
7598;DHT22;3840;59.32098800;18.06423600;2022-09-28T12:11:14;14.00;99.90
7598;DHT22;3840;59.32098800;18.06423600;2022-09-28T12:13:45;13.90;99.90
7598;DHT22;3840;59.32098800;18.06423600;2022-09-28T12:16:18;14.00;99.90
7598;DHT22;3840;59.32098800;18.06423600;2022-09-28T12:21:26;13.90;99.90
7598;DHT22;3840;59.32098800;18.06423600;2022-09-28T12:23:59;13.80;99.90
7598;DHT22;3840;59.32098800;18.06423600;2022-09-28T12:29:24;13.70;99.90
7598;DHT22;3840;59.32098800;18.06423600;2022-09-28T12:32:21;13.70;99.90
7598;DHT22;3840;59.32098800;18.06423600;2022-09-28T12:34:48;13.60;99.90
7598;DHT22;3840;59.32098800;18.06423600;2022-09-28T12:37:52;13.50;99.90
7598;DHT22;3840;59.32098800;18.06423600;2022-09-28T12:40:34;13.40;99.90
7598;DHT22;3840;59.32098800;18.06423600;2022-09-28T12:43:23;13.40;99.90
7598;DHT22;3840;59.32098800;18.06423600;2022-09-28T12:46:15;13.20;99.90
7598;DHT22;3840;59.32098800;18.06423600;2022-09-28T12:49:24;13.10;99.90
7598;DHT22;3840;59.32098800;18.06423600;2022-09-28T12:51:54;13.10;99.90
7598;DHT22;3840;59.32098800;18.06423600;2022-09-28T13:17:44;13.40;99.90
7598;DHT22;3840;59.32098800;18.06423600;2022-09-28T13:20:23;13.30;99.90
7598;DHT22;3840;59.32098800;18.06423600;2022-09-28T13:25:31;13.20;99.90
7598;DHT22;3840;59.32098800;18.06423600;2022-09-28T13:28:04;13.00;99.90
7598;DHT22;3840;59.32098800;18.06423600;2022-09-28T13:30:34;12.90;99.90
7598;DHT22;3840;59.32098800;18.06423600;2022-09-28T13:33:05;12.90;99.90
7598;DHT22;3840;59.32098800;18.06423600;2022-09-28T13:35:33;13.00;99.90
7598;DHT22;3840;59.32098800;18.06423600;2022-09-28T13:38:43;13.00;99.90
7598;DHT22;3840;59.32098800;18.06423600;2022-09-28T13:41:57;13.20;99.90
7598;DHT22;3840;59.32098800;18.06423600;2022-09-28T13:53:09;12.90;99.90
7598;DHT22;3840;59.32098800;18.06423600;2022-09-28T13:56:14;13.00;99.90
7598;DHT22;3840;59.32098800;18.06423600;2022-09-28T13:58:50;13.00;99.90
7598;DHT22;3840;59.32098800;18.06423600;2022-09-28T14:07:08;13.80;99.90
7598;DHT22;3840;59.32098800;18.06423600;2022-09-28T14:18:28;12.90;99.90
7598;DHT22;3840;59.32098800;18.06423600;2022-09-28T14:27:06;12.90;99.90
7598;DHT22;3840;59.32098800;18.06423600;2022-09-28T14:29:36;12.80;99.90
7598;DHT22;3840;59.32098800;18.06423600;2022-09-28T14:34:37;12.70;99.90
7598;DHT22;3840;59.32098800;18.06423600;2022-09-28T14:40:20;12.60;99.90
7598;DHT22;3840;59.32098800;18.06423600;2022-09-28T14:49:02;12.50;99.90
7598;DHT22;3840;59.32098800;18.06423600;2022-09-28T14:59:22;12.60;99.90
7598;DHT22;3840;59.32098800;18.06423600;2022-09-28T15:02:03;12.60;99.90
7598;DHT22;3840;59.32098800;18.06423600;2022-09-28T15:04:33;12.60;99.90
7598;DHT22;3840;59.32098800;18.06423600;2022-09-28T15:07:03;12.60;99.90
7598;DHT22;3840;59.32098800;18.06423600;2022-09-28T15:09:34;12.60;99.90
7598;DHT22;3840;59.32098800;18.06423600;2022-09-28T15:12:20;12.60;99.90
7598;DHT22;3840;59.32098800;18.06423600;2022-09-28T15:15:06;12.60;99.90
7598;DHT22;3840;59.32098800;18.06423600;2022-09-28T15:17:47;12.50;99.90
7598;DHT22;3840;59.32098800;18.06423600;2022-09-28T15:22:54;12.30;99.90
7598;DHT22;3840;59.32098800;18.06423600;2022-09-28T15:25:26;12.30;99.90
7598;DHT22;3840;59.32098800;18.06423600;2022-09-28T15:28:16;12.30;99.90
7598;DHT22;3840;59.32098800;18.06423600;2022-09-28T15:30:42;12.20;99.90
7598;DHT22;3840;59.32098800;18.06423600;2022-09-28T15:33:25;12.20;99.90
7598;DHT22;3840;59.32098800;18.06423600;2022-09-28T15:36:24;12.20;99.90
7598;DHT22;3840;59.32098800;18.06423600;2022-09-28T15:41:23;12.20;99.90
7598;DHT22;3840;59.32098800;18.06423600;2022-09-28T15:44:17;12.20;99.90
7598;DHT22;3840;59.32098800;18.06423600;2022-09-28T15:46:51;12.10;99.90
7598;DHT22;3840;59.32098800;18.06423600;2022-09-28T15:49:52;12.10;99.90
7598;DHT22;3840;59.32098800;18.06423600;2022-09-28T15:52:42;12.00;99.90
7598;DHT22;3840;59.32098800;18.06423600;2022-09-28T15:55:29;12.00;99.90
7598;DHT22;3840;59.32098800;18.06423600;2022-09-28T15:58:18;12.00;99.90
7598;DHT22;3840;59.32098800;18.06423600;2022-09-28T16:00:45;12.00;99.90
7598;DHT22;3840;59.32098800;18.06423600;2022-09-28T16:03:41;12.00;99.90
7598;DHT22;3840;59.32098800;18.06423600;2022-09-28T16:06:09;11.90;99.90
7598;DHT22;3840;59.32098800;18.06423600;2022-09-28T16:08:39;11.90;99.90
7598;DHT22;3840;59.32098800;18.06423600;2022-09-28T16:11:14;11.90;99.90
7598;DHT22;3840;59.32098800;18.06423600;2022-09-28T16:14:03;11.90;99.90
7598;DHT22;3840;59.32098800;18.06423600;2022-09-28T16:16:45;11.90;99.90
7598;DHT22;3840;59.32098800;18.06423600;2022-09-28T16:21:51;11.90;99.90
7598;DHT22;3840;59.32098800;18.06423600;2022-09-28T16:24:27;11.80;99.90
7598;DHT22;3840;59.32098800;18.06423600;2022-09-28T16:28:21;11.80;99.90
7598;DHT22;3840;59.32098800;18.06423600;2022-09-28T16:30:30;11.80;99.90
7598;DHT22;3840;59.32098800;18.06423600;2022-09-28T16:33:04;11.70;99.90
7598;DHT22;3840;59.32098800;18.06423600;2022-09-28T16:38:15;11.70;99.90
7598;DHT22;3840;59.32098800;18.06423600;2022-09-28T16:40:50;11.60;99.90
7598;DHT22;3840;59.32098800;18.06423600;2022-09-28T16:43:27;11.60;99.90
7598;DHT22;3840;59.32098800;18.06423600;2022-09-28T16:45:54;11.60;99.90
7598;DHT22;3840;59.32098800;18.06423600;2022-09-28T16:48:25;11.60;99.90
7598;DHT22;3840;59.32098800;18.06423600;2022-09-28T16:50:51;11.60;99.90
7598;DHT22;3840;59.32098800;18.06423600;2022-09-28T16:53:18;11.70;99.90
7598;DHT22;3840;59.32098800;18.06423600;2022-09-28T16:56:03;11.70;99.90
7598;DHT22;3840;59.32098800;18.06423600;2022-09-28T16:58:31;11.80;99.90